createdAt,value
2022-11-21T00:01:14.084Z,4.21
2022-11-21T00:03:41.835Z,4.19
2022-11-21T00:06:09.368Z,4.15
2022-11-21T00:08:36.872Z,4.43
2022-11-21T00:11:04.682Z,4.36
2022-11-21T00:13:32.110Z,4.23
2022-11-21T00:16:07.509Z,3.88
2022-11-21T00:18:35.550Z,3.84
2022-11-21T00:21:08.231Z,3.90
2022-11-21T00:23:36.164Z,3.92
2022-11-21T00:26:05.214Z,3.80
2022-11-21T00:28:32.881Z,3.79
2022-11-21T00:31:00.656Z,3.93
2022-11-21T00:33:28.252Z,3.96
2022-11-21T00:35:55.717Z,3.85
2022-11-21T00:38:24.440Z,3.87
2022-11-21T00:40:51.954Z,3.99
2022-11-21T00:43:19.351Z,3.84
2022-11-21T00:45:47.150Z,3.85
2022-11-21T00:48:14.587Z,3.92
2022-11-21T00:50:42.010Z,3.82
2022-11-21T00:53:09.672Z,3.72
2022-11-21T00:55:37.446Z,3.62
2022-11-21T00:58:04.885Z,3.50
2022-11-21T01:00:32.662Z,3.43
2022-11-21T01:03:01.245Z,3.42
2022-11-21T01:05:28.676Z,3.49
2022-11-21T01:07:56.435Z,3.47
2022-11-21T01:10:23.861Z,3.68
2022-11-21T01:12:51.356Z,3.67
2022-11-21T01:15:19.124Z,3.55
2022-11-21T01:17:46.536Z,3.53
2022-11-21T01:20:14.719Z,3.54
2022-11-21T01:22:42.458Z,3.78
2022-11-21T01:25:09.988Z,3.79
2022-11-21T01:27:37.416Z,3.74
2022-11-21T01:30:05.729Z,3.58
2022-11-21T01:32:33.104Z,3.55
2022-11-21T01:35:00.588Z,3.58
2022-11-21T01:37:28.373Z,3.65
2022-11-21T01:39:55.821Z,3.63
2022-11-21T01:42:23.253Z,3.54
2022-11-21T01:44:54.461Z,3.70
2022-11-21T01:47:22.857Z,3.85
2022-11-21T01:49:51.804Z,3.55
2022-11-21T01:52:29.354Z,3.42
2022-11-21T01:55:06.131Z,3.53
2022-11-21T01:57:46.047Z,3.50
2022-11-21T02:00:23.927Z,3.61
2022-11-21T02:02:54.168Z,3.65
2022-11-21T02:05:30.930Z,3.67
2022-11-21T02:08:02.860Z,3.74
2022-11-21T02:10:30.445Z,3.62
2022-11-21T02:12:59.021Z,3.56
2022-11-21T02:15:28.326Z,3.62
2022-11-21T02:17:56.332Z,3.51
2022-11-21T02:20:26.204Z,3.40
2022-11-21T02:22:59.712Z,3.59
2022-11-21T02:25:32.487Z,3.53
2022-11-21T02:28:02.326Z,3.25
2022-11-21T02:30:31.782Z,3.54
2022-11-21T02:32:59.692Z,3.54
2022-11-21T02:35:27.222Z,3.34
2022-11-21T02:37:58.937Z,3.44
2022-11-21T02:40:30.557Z,3.37
2022-11-21T02:43:08.379Z,3.38
2022-11-21T02:45:44.344Z,3.27
2022-11-21T02:48:12.894Z,3.41
2022-11-21T02:50:42.270Z,3.40
2022-11-21T02:53:13.336Z,3.40
2022-11-21T02:55:41.701Z,3.52
2022-11-21T02:58:09.179Z,3.19
2022-11-21T03:00:39.422Z,3.48
2022-11-21T03:03:07.384Z,3.28
2022-11-21T03:05:35.064Z,3.32
2022-11-21T03:08:02.612Z,3.35
2022-11-21T03:10:30.358Z,3.28
2022-11-21T03:13:03.674Z,3.13
2022-11-21T03:15:33.282Z,3.10
2022-11-21T03:18:03.167Z,3.31
2022-11-21T03:20:32.184Z,3.38
2022-11-21T03:22:59.607Z,3.29
2022-11-21T03:25:27.086Z,3.31
2022-11-21T03:27:55.307Z,3.34
2022-11-21T03:30:24.649Z,3.25
2022-11-21T03:32:55.905Z,3.27
2022-11-21T03:35:23.989Z,3.31
2022-11-21T03:37:51.650Z,3.18
2022-11-21T03:40:19.105Z,3.09
2022-11-21T03:42:46.906Z,3.28
2022-11-21T03:45:14.344Z,3.30
2022-11-21T03:47:41.821Z,3.16
2022-11-21T03:50:10.781Z,3.21
2022-11-21T03:52:38.253Z,3.24
2022-11-21T03:55:06.081Z,3.17
2022-11-21T03:57:33.805Z,2.98
2022-11-21T04:00:01.257Z,2.95
2022-11-21T04:02:28.687Z,3.01
2022-11-21T04:04:56.426Z,2.81
2022-11-21T04:07:24.084Z,2.89
2022-11-21T04:09:51.573Z,2.92
2022-11-21T04:12:19.335Z,3.05
2022-11-21T04:14:46.796Z,3.13
2022-11-21T04:17:14.238Z,3.18
2022-11-21T04:19:41.950Z,3.22
2022-11-21T04:22:09.401Z,3.13
2022-11-21T04:24:36.825Z,3.04
2022-11-21T04:27:04.623Z,3.04
2022-11-21T04:29:32.053Z,2.83
2022-11-21T04:31:59.467Z,2.97
2022-11-21T04:34:27.661Z,3.12
2022-11-21T04:36:55.257Z,3.10
2022-11-21T04:39:22.889Z,3.09
2022-11-21T04:41:50.702Z,3.08
2022-11-21T04:44:18.126Z,3.13
2022-11-21T04:46:45.570Z,3.09
2022-11-21T04:49:13.361Z,3.20
2022-11-21T04:51:40.786Z,3.19
2022-11-21T04:54:08.316Z,3.26
2022-11-21T04:56:36.798Z,3.24
2022-11-21T04:59:04.315Z,3.18
2022-11-21T05:01:31.778Z,3.29
2022-11-21T05:03:59.541Z,3.23
2022-11-21T05:06:26.968Z,3.21
2022-11-21T05:08:54.439Z,3.56
2022-11-21T05:11:41.147Z,3.24
2022-11-21T05:18:24.319Z,3.18
2022-11-21T05:20:52.157Z,3.03
2022-11-21T05:23:19.610Z,3.24
2022-11-21T05:25:47.131Z,3.18
2022-11-21T05:28:14.926Z,3.14
2022-11-21T05:30:42.335Z,3.22
2022-11-21T05:33:09.770Z,3.20
2022-11-21T05:35:42.875Z,3.23
2022-11-21T05:38:10.961Z,3.32
2022-11-21T05:40:39.053Z,3.32
2022-11-21T05:43:41.820Z,3.23
2022-11-21T05:46:09.615Z,3.35
2022-11-21T05:48:37.229Z,3.19
2022-11-21T05:51:04.993Z,3.37
2022-11-21T05:53:53.834Z,3.47
2022-11-21T05:56:38.907Z,3.34
2022-11-21T05:59:30.821Z,3.43
2022-11-21T06:02:17.287Z,3.42
2022-11-21T06:04:45.031Z,3.46
2022-11-21T06:07:12.498Z,3.42
2022-11-21T06:09:39.954Z,3.53
2022-11-21T06:12:07.696Z,3.48
2022-11-21T06:14:35.086Z,3.63
2022-11-21T06:17:02.533Z,3.85
2022-11-21T06:19:30.259Z,3.75
2022-11-21T06:21:59.306Z,3.91
2022-11-21T06:24:27.008Z,3.89
2022-11-21T06:26:54.926Z,3.95
2022-11-21T06:29:22.357Z,3.95
2022-11-21T06:31:50.814Z,3.74
2022-11-21T06:34:18.641Z,3.89
2022-11-21T06:36:46.574Z,3.84
2022-11-21T06:39:13.998Z,4.05
2022-11-21T06:41:42.542Z,4.19
2022-11-21T06:44:10.178Z,4.06
2022-11-21T06:46:37.559Z,4.06
2022-11-21T06:49:05.266Z,3.95
2022-11-21T06:51:34.867Z,4.23
2022-11-21T06:54:02.361Z,3.85
2022-11-21T06:56:34.248Z,3.89
2022-11-21T06:59:01.714Z,3.80
2022-11-21T07:01:29.473Z,4.15
2022-11-21T07:04:01.302Z,4.15
2022-11-21T07:06:28.941Z,4.21
2022-11-21T07:11:44.431Z,4.07
2022-11-21T07:14:12.554Z,4.22
2022-11-21T07:16:39.996Z,4.32
2022-11-21T07:19:07.623Z,4.52
2022-11-21T07:21:35.595Z,4.32
2022-11-21T07:24:03.402Z,4.47
2022-11-21T07:26:30.787Z,4.49
2022-11-21T07:28:58.937Z,4.54
2022-11-21T07:31:27.013Z,4.54
2022-11-21T07:33:54.574Z,4.33
2022-11-21T07:36:22.610Z,4.36
2022-11-21T07:38:50.689Z,4.41
2022-11-21T07:41:18.307Z,4.61
2022-11-21T07:43:46.210Z,4.49
2022-11-21T07:46:13.823Z,4.20
2022-11-21T07:48:41.395Z,4.51
2022-11-21T07:51:10.170Z,4.46
2022-11-21T07:53:37.759Z,4.62
2022-11-21T07:56:05.653Z,4.69
2022-11-21T07:58:33.497Z,4.75
2022-11-21T08:01:06.000Z,4.82
2022-11-21T08:03:34.526Z,4.96
2022-11-21T08:06:04.028Z,5.09
2022-11-21T08:08:31.631Z,5.17
2022-11-21T08:11:04.401Z,5.43
2022-11-21T08:13:32.499Z,5.37
2022-11-21T08:16:05.152Z,5.43
2022-11-21T08:18:33.417Z,5.62
2022-11-21T08:21:02.710Z,5.36
2022-11-21T08:23:50.959Z,5.32
2022-11-21T08:26:20.313Z,5.63
2022-11-21T08:28:48.747Z,5.80
2022-11-21T08:31:16.300Z,5.75
2022-11-21T08:33:44.465Z,5.86
2022-11-21T08:36:12.734Z,6.02
2022-11-21T08:38:40.668Z,6.02
2022-11-21T08:41:27.443Z,6.45
2022-11-21T08:43:55.205Z,6.10
2022-11-21T08:46:27.320Z,6.43
2022-11-21T08:48:55.737Z,6.02
2022-11-21T08:51:23.918Z,6.06
2022-11-21T08:53:51.951Z,6.12
2022-11-21T08:56:19.902Z,5.88
2022-11-21T08:58:48.267Z,5.71
2022-11-21T09:01:16.001Z,5.89
2022-11-21T09:03:43.602Z,5.72
2022-11-21T09:06:13.253Z,5.95
2022-11-21T09:08:40.795Z,6.12
2022-11-21T09:11:10.107Z,5.76
2022-11-21T09:13:38.138Z,6.06
2022-11-21T09:16:24.719Z,5.99
2022-11-21T09:18:53.226Z,5.91
2022-11-21T09:21:22.036Z,5.75
2022-11-21T09:23:49.632Z,5.85
2022-11-21T09:26:17.666Z,5.56
2022-11-21T09:28:45.334Z,5.67
2022-11-21T09:31:13.120Z,5.59
2022-11-21T09:33:41.010Z,6.04
2022-11-21T09:36:08.884Z,5.90
2022-11-21T09:38:36.304Z,5.75
2022-11-21T09:41:51.701Z,5.67
2022-11-21T09:44:39.695Z,5.66
2022-11-21T09:47:22.822Z,5.59
2022-11-21T09:50:24.202Z,5.50
2022-11-21T09:53:12.123Z,5.56
2022-11-21T09:55:47.306Z,5.74
2022-11-21T09:58:31.329Z,5.74
2022-11-21T10:00:58.997Z,5.70
2022-11-21T10:03:29.857Z,5.93
2022-11-21T10:06:04.970Z,5.65
2022-11-21T10:08:55.968Z,5.59
2022-11-21T10:12:02.321Z,5.62
2022-11-21T10:14:39.330Z,5.54
2022-11-21T10:17:16.113Z,5.90
2022-11-21T10:20:24.779Z,6.45
2022-11-21T10:23:10.999Z,6.38
2022-11-21T10:25:39.814Z,6.49
2022-11-21T10:28:19.468Z,6.43
2022-11-21T10:30:48.520Z,6.57
2022-11-21T10:33:23.775Z,6.75
2022-11-21T10:35:54.425Z,6.90
2022-11-21T10:38:43.126Z,7.09
2022-11-21T10:41:24.931Z,7.21
2022-11-21T10:44:38.123Z,7.21
2022-11-21T10:47:30.126Z,7.18
2022-11-21T10:50:09.447Z,7.35
2022-11-21T10:52:45.617Z,7.38
2022-11-21T10:55:16.185Z,7.37
2022-11-21T10:57:49.372Z,7.51
2022-11-21T11:00:25.443Z,7.69
2022-11-21T11:03:05.075Z,7.81
2022-11-21T11:05:37.578Z,7.61
2022-11-21T11:08:10.756Z,7.81
2022-11-21T11:10:39.419Z,8.09
2022-11-21T11:13:50.394Z,8.01
2022-11-21T11:16:19.731Z,8.26
2022-11-21T11:18:57.504Z,8.05
2022-11-21T11:21:27.996Z,8.11
2022-11-21T11:24:12.002Z,8.25
2022-11-21T11:26:49.088Z,8.12
2022-11-21T11:29:19.037Z,8.16
2022-11-21T11:31:52.394Z,8.26
2022-11-21T11:34:20.761Z,8.28
2022-11-21T11:37:10.023Z,8.38
2022-11-21T11:39:41.120Z,8.43
2022-11-21T11:42:38.867Z,8.35
2022-11-21T11:45:47.016Z,8.65
2022-11-21T11:48:15.473Z,8.82
2022-11-21T11:50:48.175Z,8.81
2022-11-21T11:53:22.893Z,8.76
2022-11-21T11:56:06.336Z,8.93
2022-11-21T11:58:40.924Z,9.21
2022-11-21T12:01:13.335Z,9.27
2022-11-21T12:03:46.965Z,9.08
2022-11-21T12:07:07.201Z,9.49
2022-11-21T12:09:33.016Z,9.73
2022-11-21T12:12:26.340Z,9.47
2022-11-21T12:15:34.426Z,9.65
2022-11-21T12:18:20.229Z,9.77
2022-11-21T12:20:57.426Z,9.64
2022-11-21T12:23:31.707Z,9.42
2022-11-21T12:29:04.852Z,9.88
2022-11-21T12:31:57.578Z,9.26
2022-11-21T12:34:57.761Z,9.48
2022-11-21T12:37:48.346Z,9.13
2022-11-21T12:40:48.359Z,9.04
2022-11-21T12:43:47.244Z,9.21
2022-11-21T12:50:51.127Z,9.26
2022-11-21T12:54:03.624Z,8.96
2022-11-21T12:57:00.626Z,8.68
2022-11-21T12:59:30.821Z,8.66
2022-11-21T13:02:06.186Z,8.60
2022-11-21T13:04:36.247Z,8.54
2022-11-21T13:07:04.590Z,8.88
2022-11-21T13:09:39.267Z,9.21
2022-11-21T13:12:16.202Z,9.52
2022-11-21T13:14:52.340Z,9.20
2022-11-21T13:17:26.344Z,9.02
2022-11-21T13:20:12.834Z,9.30
2022-11-21T13:22:40.782Z,9.51
2022-11-21T13:25:33.887Z,9.18
2022-11-21T13:28:32.169Z,8.86
2022-11-21T13:31:01.791Z,9.17
2022-11-21T13:33:35.906Z,9.75
2022-11-21T13:36:11.086Z,9.67
2022-11-21T13:38:51.527Z,9.71
2022-11-21T13:41:52.983Z,9.64
2022-11-21T13:44:33.201Z,9.69
2022-11-21T13:47:09.916Z,9.72
2022-11-21T13:49:43.937Z,9.39
2022-11-21T13:52:23.546Z,8.92
2022-11-21T13:55:16.679Z,8.81
2022-11-21T13:58:02.679Z,8.87
2022-11-21T14:15:07.723Z,9.27
2022-11-21T14:18:03.719Z,9.27
2022-11-21T14:21:04.533Z,8.64
2022-11-21T14:24:07.728Z,8.55
2022-11-21T14:26:51.743Z,8.10
2022-11-21T14:29:41.514Z,7.69
2022-11-21T14:32:36.959Z,7.64
2022-11-21T14:35:23.033Z,8.34
2022-11-21T14:38:10.982Z,8.56
2022-11-21T14:41:27.485Z,8.62
2022-11-21T14:47:24.977Z,8.62
2022-11-21T14:50:06.818Z,8.45
2022-11-21T14:52:58.431Z,8.44
2022-11-21T14:55:41.007Z,8.55
2022-11-21T14:58:32.957Z,8.92
2022-11-21T15:01:35.625Z,8.75
2022-11-21T15:04:34.062Z,8.60
2022-11-21T15:07:31.598Z,8.57
2022-11-21T15:10:29.394Z,8.60
2022-11-21T15:13:20.421Z,8.64
2022-11-21T15:16:13.438Z,8.61
2022-11-21T15:19:11.921Z,8.84
2022-11-21T15:21:56.985Z,8.61
2022-11-21T15:24:50.683Z,8.23
2022-11-21T15:27:41.640Z,8.66
2022-11-21T15:30:27.073Z,8.74
2022-11-21T15:33:21.492Z,8.65
2022-11-21T15:36:18.500Z,8.62
2022-11-21T15:39:12.458Z,8.72
2022-11-21T15:42:34.751Z,8.46
2022-11-21T15:48:16.564Z,8.52
2022-11-21T15:51:02.614Z,8.79
2022-11-21T15:53:55.060Z,8.75
2022-11-21T15:59:45.730Z,8.58
2022-11-21T16:02:34.685Z,8.87
2022-11-21T16:05:19.736Z,8.88
2022-11-21T16:08:16.492Z,8.73
2022-11-21T16:10:58.715Z,8.55
2022-11-21T16:13:42.916Z,8.52
2022-11-21T16:16:39.799Z,8.62
2022-11-21T16:19:19.456Z,8.57
2022-11-21T16:22:31.549Z,8.58
2022-11-21T16:25:27.999Z,9.10
2022-11-21T16:28:42.538Z,8.70
2022-11-21T16:31:27.143Z,8.29
2022-11-21T16:34:28.683Z,8.29
2022-11-21T16:37:23.028Z,8.92
2022-11-21T16:40:18.529Z,8.75
2022-11-21T16:43:16.848Z,8.49
2022-11-21T16:46:09.018Z,8.33
2022-11-21T16:51:59.512Z,8.21
2022-11-21T16:54:49.454Z,8.21
2022-11-21T17:00:28.808Z,8.25
2022-11-21T17:03:18.454Z,8.21
2022-11-21T17:06:05.207Z,8.34
2022-11-21T17:09:04.525Z,8.09
2022-11-21T17:12:00.719Z,7.86
2022-11-21T17:14:42.514Z,7.75
2022-11-21T17:17:28.149Z,8.08
2022-11-21T17:20:11.825Z,7.96
2022-11-21T17:23:14.426Z,7.75
2022-11-21T17:26:04.401Z,7.65
2022-11-21T17:29:03.551Z,7.48
2022-11-21T17:32:21.496Z,7.61
2022-11-21T17:37:56.401Z,7.69
2022-11-21T17:43:24.610Z,7.43
2022-11-21T17:46:16.394Z,7.56
2022-11-21T17:49:06.578Z,7.47
2022-11-21T17:52:02.760Z,7.49
2022-11-21T17:54:53.484Z,7.46
2022-11-21T17:57:38.771Z,7.48
2022-11-21T18:00:29.633Z,7.48
2022-11-21T18:03:23.778Z,7.44
2022-11-21T18:06:09.479Z,7.67
2022-11-21T18:09:06.313Z,7.53
2022-11-21T18:11:57.419Z,7.43
2022-11-21T18:17:42.879Z,7.46
2022-11-21T18:20:26.029Z,7.47
2022-11-21T18:23:21.093Z,7.49
2022-11-21T18:26:17.870Z,7.43
2022-11-21T18:31:50.430Z,7.46
2022-11-21T18:34:53.409Z,7.36
2022-11-21T18:37:38.238Z,7.46
2022-11-21T18:40:20.667Z,7.65
2022-11-21T18:43:03.933Z,7.53
2022-11-21T18:46:12.389Z,7.47
2022-11-21T18:49:04.523Z,7.43
2022-11-21T18:52:03.740Z,7.35
2022-11-21T18:55:01.630Z,7.55
2022-11-21T18:57:56.354Z,7.46
2022-11-21T19:00:51.622Z,7.35
2022-11-21T19:03:48.685Z,7.33
2022-11-21T19:06:32.260Z,7.60
2022-11-21T19:12:10.394Z,7.46
2022-11-21T19:14:56.459Z,7.38
2022-11-21T19:17:54.585Z,7.35
2022-11-21T19:20:39.655Z,7.41
2022-11-21T19:23:35.646Z,7.09
2022-11-21T19:29:11.443Z,7.40
2022-11-21T19:31:52.712Z,7.33
2022-11-21T19:40:54.656Z,7.46
2022-11-21T19:43:36.505Z,7.44
2022-11-21T19:46:46.449Z,7.30
2022-11-21T19:49:39.475Z,7.40
2022-11-21T19:52:31.753Z,7.40
2022-11-21T19:55:19.173Z,7.39
2022-11-21T19:58:21.164Z,7.38
2022-11-21T20:01:30.028Z,7.33
2022-11-21T20:04:25.668Z,7.33
2022-11-21T20:09:59.600Z,7.39
2022-11-21T20:12:52.427Z,7.34
2022-11-21T20:15:43.002Z,7.33
2022-11-21T20:18:36.677Z,7.33
2022-11-21T20:21:23.484Z,7.33
2022-11-21T20:27:04.764Z,7.05
2022-11-21T20:29:47.889Z,7.06
2022-11-21T20:32:42.546Z,6.77
2022-11-21T20:35:40.666Z,6.47
2022-11-21T20:42:15.804Z,6.73
2022-11-21T20:48:11.172Z,6.74
2022-11-21T20:53:57.185Z,6.64
2022-11-21T20:56:41.312Z,6.49
2022-11-21T20:59:22.128Z,6.61
2022-11-21T21:02:14.968Z,6.61
2022-11-21T21:05:14.372Z,6.57
2022-11-21T21:12:19.624Z,6.71
2022-11-21T21:20:40.010Z,6.56
2022-11-21T21:23:14.906Z,6.61
2022-11-21T21:26:20.819Z,6.78
2022-11-21T21:29:08.455Z,6.78
2022-11-21T21:32:03.873Z,6.57
2022-11-21T21:34:44.939Z,6.38
2022-11-21T21:37:40.769Z,6.56
2022-11-21T21:40:24.621Z,6.53
2022-11-21T21:43:11.958Z,6.60
2022-11-21T21:46:11.539Z,6.64
2022-11-21T21:48:57.373Z,6.58
2022-11-21T21:51:53.335Z,6.39
2022-11-21T21:54:33.291Z,6.38
2022-11-21T21:57:27.401Z,6.67
2022-11-21T22:00:15.029Z,6.62
2022-11-21T22:03:11.397Z,6.51
2022-11-21T22:05:52.809Z,6.43
2022-11-21T22:08:50.368Z,6.60
2022-11-21T22:11:35.577Z,6.42
2022-11-21T22:14:30.418Z,6.40
2022-11-21T22:17:12.650Z,6.53
2022-11-21T22:20:08.448Z,6.51
2022-11-21T22:22:48.341Z,6.39
2022-11-21T22:25:40.421Z,6.48
2022-11-21T22:28:20.538Z,6.46
2022-11-21T22:31:17.738Z,6.71
2022-11-21T22:33:46.322Z,6.72
2022-11-21T22:36:17.874Z,6.84
2022-11-21T22:38:46.781Z,6.73
2022-11-21T22:41:21.806Z,6.50
2022-11-21T22:44:00.556Z,6.34
2022-11-21T22:46:34.677Z,5.99
2022-11-21T22:49:04.002Z,6.36
2022-11-21T22:51:32.511Z,5.99
2022-11-21T22:54:00.022Z,5.90
2022-11-21T22:56:28.230Z,6.08
2022-11-21T22:58:56.283Z,6.28
2022-11-21T23:01:26.604Z,6.35
2022-11-21T23:03:55.935Z,6.57
2022-11-21T23:06:26.532Z,6.54
2022-11-21T23:08:56.599Z,6.45
2022-11-21T23:11:27.905Z,6.42
2022-11-21T23:13:59.605Z,6.50
2022-11-21T23:17:13.307Z,6.71
2022-11-21T23:19:55.584Z,6.31
2022-11-21T23:22:38.014Z,6.38
2022-11-21T23:25:22.607Z,6.49
2022-11-21T23:28:05.391Z,6.29
2022-11-21T23:30:48.951Z,6.45
2022-11-21T23:33:34.920Z,6.03
2022-11-21T23:36:17.653Z,5.92
2022-11-21T23:39:12.212Z,6.07
2022-11-21T23:41:54.437Z,6.36
2022-11-21T23:44:55.301Z,6.44
2022-11-21T23:47:37.664Z,6.05
2022-11-21T23:50:07.756Z,5.84
2022-11-21T23:52:48.789Z,6.19
2022-11-21T23:55:43.634Z,6.04
2022-11-21T23:58:13.347Z,6.03
